createdAt,value
2018-05-11T00:02:14.474Z,101120.20
2018-05-11T00:04:40.285Z,101129.38
2018-05-11T00:07:06.075Z,101130.67
2018-05-11T00:09:31.849Z,101130.28
2018-05-11T00:11:57.647Z,101130.28
2018-05-11T00:14:23.428Z,101130.08
2018-05-11T00:16:49.249Z,101127.52
2018-05-11T00:19:15.057Z,101128.78
2018-05-11T00:21:40.850Z,101131.19
2018-05-11T00:24:06.670Z,101127.41
2018-05-11T00:26:32.470Z,101135.78
2018-05-11T00:28:58.255Z,101137.28
2018-05-11T00:31:24.062Z,101140.03
2018-05-11T00:33:49.863Z,101145.37
2018-05-11T00:36:15.657Z,101147.11
2018-05-11T00:38:41.455Z,101144.70
2018-05-11T00:41:07.252Z,101149.37
2018-05-11T00:43:33.064Z,101150.25
2018-05-11T00:45:58.849Z,101163.83
2018-05-11T00:48:24.641Z,101147.94
2018-05-11T00:50:50.459Z,101155.30
2018-05-11T00:53:16.240Z,101159.17
2018-05-11T00:55:44.910Z,101154.84
2018-05-11T00:58:10.722Z,101157.02
2018-05-11T01:00:36.551Z,101151.66
2018-05-11T01:03:02.450Z,101151.74
2018-05-11T01:05:28.321Z,101159.81
2018-05-11T01:07:54.096Z,101167.99
2018-05-11T01:10:19.955Z,101162.56
2018-05-11T01:12:45.750Z,101162.52
2018-05-11T01:15:11.558Z,101168.03
2018-05-11T01:17:37.371Z,101163.94
2018-05-11T01:20:03.194Z,101170.39
2018-05-11T01:22:28.987Z,101180.81
2018-05-11T01:24:54.782Z,101179.98
2018-05-11T01:27:20.575Z,101184.35
2018-05-11T01:29:46.384Z,101182.98
2018-05-11T01:32:12.191Z,101187.97
2018-05-11T01:34:37.983Z,101189.33
2018-05-11T01:37:03.772Z,101196.34
2018-05-11T01:39:29.839Z,101201.19
2018-05-11T01:41:55.638Z,101210.97
2018-05-11T01:44:21.468Z,101211.83
2018-05-11T01:46:47.497Z,101218.02
2018-05-11T01:49:13.286Z,101217.55
2018-05-11T01:51:39.062Z,101223.56
2018-05-11T01:54:04.866Z,101222.33
2018-05-11T01:56:30.654Z,101237.96
2018-05-11T01:58:56.470Z,101238.02
2018-05-11T02:01:22.270Z,101242.71
2018-05-11T02:03:48.076Z,101243.94
2018-05-11T02:06:13.873Z,101247.73
2018-05-11T02:08:39.664Z,101248.17
2018-05-11T02:11:05.444Z,101251.00
2018-05-11T02:13:31.269Z,101253.16
2018-05-11T02:15:57.068Z,101263.38
2018-05-11T02:18:22.837Z,101268.16
2018-05-11T02:20:48.634Z,101274.80
2018-05-11T02:23:14.422Z,101278.71
2018-05-11T02:25:40.231Z,101279.85
2018-05-11T02:28:06.025Z,101280.86
2018-05-11T02:30:31.800Z,101286.66
2018-05-11T02:32:57.593Z,101286.55
2018-05-11T02:35:23.424Z,101280.28
2018-05-11T02:37:49.211Z,101282.60
2018-05-11T02:40:14.998Z,101283.99
2018-05-11T02:42:40.811Z,101286.80
2018-05-11T02:45:06.614Z,101288.05
2018-05-11T02:47:32.398Z,101294.48
2018-05-11T02:49:58.228Z,101294.36
2018-05-11T02:52:24.092Z,101295.47
2018-05-11T02:54:49.881Z,101298.80
2018-05-11T02:57:15.673Z,101295.69
2018-05-11T02:59:41.444Z,101296.55
2018-05-11T03:02:07.373Z,101300.33
2018-05-11T03:04:33.176Z,101308.99
2018-05-11T03:06:58.960Z,101308.47
2018-05-11T03:09:25.117Z,101307.59
2018-05-11T03:11:52.066Z,101303.22
2018-05-11T03:14:17.862Z,101300.77
2018-05-11T03:16:43.686Z,101302.90
2018-05-11T03:19:09.489Z,101299.77
2018-05-11T03:21:35.273Z,101305.81
2018-05-11T03:24:01.093Z,101304.39
2018-05-11T03:26:26.893Z,101316.23
2018-05-11T03:28:52.699Z,101307.36
2018-05-11T03:31:18.489Z,101310.78
2018-05-11T03:33:44.282Z,101313.00
2018-05-11T03:36:10.066Z,101319.78
2018-05-11T03:38:35.841Z,101325.95
2018-05-11T03:41:01.667Z,101324.72
2018-05-11T03:43:27.453Z,101325.88
2018-05-11T03:45:53.279Z,101327.73
2018-05-11T03:48:19.079Z,101334.58
2018-05-11T03:50:44.860Z,101330.67
2018-05-11T03:53:10.633Z,101332.39
2018-05-11T03:55:36.425Z,101327.62
2018-05-11T03:58:02.245Z,101328.29
2018-05-11T04:00:28.036Z,101326.94
2018-05-11T04:03:06.402Z,101327.30
2018-05-11T04:05:44.847Z,101330.43
2018-05-11T04:08:23.140Z,101330.14
2018-05-11T04:10:48.940Z,101329.70
2018-05-11T04:13:15.563Z,101340.23
2018-05-11T04:15:41.366Z,101345.45
2018-05-11T04:18:07.133Z,101342.53
2018-05-11T04:20:32.927Z,101349.69
2018-05-11T04:22:58.693Z,101349.72
2018-05-11T04:25:24.510Z,101356.98
2018-05-11T04:27:50.364Z,101359.78
2018-05-11T04:30:16.156Z,101362.27
2018-05-11T04:32:41.933Z,101369.66
2018-05-11T04:35:07.706Z,101367.15
2018-05-11T04:37:33.499Z,101376.14
2018-05-11T04:39:59.280Z,101380.56
2018-05-11T04:42:25.086Z,101379.03
2018-05-11T04:44:50.872Z,101380.78
2018-05-11T04:47:16.659Z,101389.23
2018-05-11T04:49:42.466Z,101388.38
2018-05-11T04:52:08.262Z,101389.63
2018-05-11T04:54:34.037Z,101394.09
2018-05-11T04:56:59.825Z,101389.06
2018-05-11T04:59:25.614Z,101396.96
2018-05-11T05:01:51.396Z,101395.05
2018-05-11T05:04:17.209Z,101399.00
2018-05-11T05:06:42.984Z,101398.17
2018-05-11T05:09:08.760Z,101395.87
2018-05-11T05:11:34.565Z,101404.33
2018-05-11T05:14:00.364Z,101408.41
2018-05-11T05:16:26.138Z,101401.60
2018-05-11T05:18:51.934Z,101410.42
2018-05-11T05:21:17.756Z,101400.70
2018-05-11T05:23:43.558Z,101399.85
2018-05-11T05:26:09.357Z,101397.83
2018-05-11T05:28:35.126Z,101397.91
2018-05-11T05:31:00.918Z,101402.08
2018-05-11T05:33:26.699Z,101407.55
2018-05-11T05:35:52.473Z,101407.59
2018-05-11T05:38:18.256Z,101408.10
2018-05-11T05:40:44.056Z,101399.77
2018-05-11T05:43:09.953Z,101399.13
2018-05-11T05:45:35.839Z,101404.67
2018-05-11T05:48:01.621Z,101415.05
2018-05-11T05:50:27.432Z,101408.38
2018-05-11T05:52:53.226Z,101413.61
2018-05-11T05:55:19.011Z,101415.25
2018-05-11T05:57:44.806Z,101419.58
2018-05-11T06:00:10.613Z,101420.22
2018-05-11T06:02:36.399Z,101415.03
2018-05-11T06:05:02.212Z,101422.92
2018-05-11T06:07:28.025Z,101415.73
2018-05-11T06:09:53.833Z,101417.84
2018-05-11T06:12:19.645Z,101415.83
2018-05-11T06:14:45.436Z,101421.36
2018-05-11T06:17:11.265Z,101420.02
2018-05-11T06:19:37.076Z,101415.38
2018-05-11T06:22:02.901Z,101421.33
2018-05-11T06:24:28.675Z,101429.29
2018-05-11T06:26:54.516Z,101425.44
2018-05-11T06:29:20.300Z,101423.47
2018-05-11T06:31:46.079Z,101425.43
2018-05-11T06:34:11.917Z,101426.58
2018-05-11T06:36:37.710Z,101418.22
2018-05-11T06:39:04.533Z,101426.87
2018-05-11T06:41:30.351Z,101427.30
2018-05-11T06:43:56.140Z,101432.59
2018-05-11T06:46:21.933Z,101430.86
2018-05-11T06:48:47.737Z,101431.48
2018-05-11T06:51:13.525Z,101435.41
2018-05-11T06:53:39.310Z,101437.06
2018-05-11T06:56:05.113Z,101434.28
2018-05-11T06:58:30.895Z,101438.56
2018-05-11T07:00:56.686Z,101437.98
2018-05-11T07:03:22.781Z,101438.51
2018-05-11T07:05:48.628Z,101440.64
2018-05-11T07:08:14.437Z,101439.92
2018-05-11T07:10:40.238Z,101439.61
2018-05-11T07:13:06.024Z,101430.77
2018-05-11T07:15:31.852Z,101434.30
2018-05-11T07:17:57.642Z,101433.19
2018-05-11T07:20:23.429Z,101433.36
2018-05-11T07:22:49.229Z,101434.77
2018-05-11T07:25:15.018Z,101431.50
2018-05-11T07:27:40.802Z,101440.52
2018-05-11T07:30:06.597Z,101439.04
2018-05-11T07:32:32.469Z,101434.39
2018-05-11T07:34:58.329Z,101441.33
2018-05-11T07:37:24.352Z,101433.67
2018-05-11T07:39:50.387Z,101437.20
2018-05-11T07:42:16.301Z,101427.70
2018-05-11T07:44:42.114Z,101431.45
2018-05-11T07:47:07.933Z,101432.05
2018-05-11T07:49:33.718Z,101427.20
2018-05-11T07:51:59.503Z,101432.64
2018-05-11T07:54:25.299Z,101431.78
2018-05-11T07:56:51.113Z,101429.16
2018-05-11T07:59:16.909Z,101420.70
2018-05-11T08:01:42.718Z,101429.46
2018-05-11T08:04:08.497Z,101432.67
2018-05-11T08:06:34.302Z,101427.34
2018-05-11T08:09:00.101Z,101426.56
2018-05-11T08:11:25.881Z,101425.22
2018-05-11T08:13:51.661Z,101426.09
2018-05-11T08:16:17.490Z,101421.42
2018-05-11T08:18:43.272Z,101428.66
2018-05-11T08:21:09.057Z,101423.23
2018-05-11T08:23:34.887Z,101419.02
2018-05-11T08:26:00.669Z,101423.27
2018-05-11T08:28:26.449Z,101421.89
2018-05-11T08:30:52.255Z,101423.19
2018-05-11T08:33:18.087Z,101428.83
2018-05-11T08:35:43.915Z,101423.17
2018-05-11T08:38:09.675Z,101417.00
2018-05-11T08:40:35.478Z,101421.80
2018-05-11T08:43:01.262Z,101424.03
2018-05-11T08:45:27.064Z,101426.92
2018-05-11T08:47:52.905Z,101427.45
2018-05-11T08:50:19.005Z,101427.78
2018-05-11T08:52:44.785Z,101424.23
2018-05-11T08:55:10.561Z,101428.19
2018-05-11T08:57:36.365Z,101425.94
2018-05-11T09:00:02.170Z,101433.12
2018-05-11T09:02:27.954Z,101431.95
2018-05-11T09:04:53.763Z,101423.97
2018-05-11T09:07:19.541Z,101428.23
2018-05-11T09:09:45.317Z,101422.03
2018-05-11T09:12:11.133Z,101416.42
2018-05-11T09:14:36.925Z,101421.26
2018-05-11T09:17:02.713Z,101420.05
2018-05-11T09:19:28.530Z,101415.67
2018-05-11T09:21:54.307Z,101410.81
2018-05-11T09:24:20.089Z,101408.65
2018-05-11T09:26:45.926Z,101409.14
2018-05-11T09:29:11.697Z,101407.48
2018-05-11T09:31:37.481Z,101411.95
2018-05-11T09:34:03.276Z,101409.89
2018-05-11T09:36:29.073Z,101409.61
2018-05-11T09:38:54.844Z,101411.00
2018-05-11T09:41:20.659Z,101409.07
2018-05-11T09:43:46.453Z,101413.69
2018-05-11T09:46:12.233Z,101421.70
2018-05-11T09:48:38.027Z,101415.73
2018-05-11T09:51:03.821Z,101416.84
2018-05-11T09:53:29.608Z,101428.55
2018-05-11T09:55:55.590Z,101429.59
2018-05-11T09:58:21.391Z,101427.59
2018-05-11T10:00:47.215Z,101427.34
2018-05-11T10:03:12.999Z,101425.77
2018-05-11T10:05:38.775Z,101433.02
2018-05-11T10:08:04.594Z,101427.98
2018-05-11T10:10:30.365Z,101433.09
2018-05-11T10:12:56.177Z,101430.49
2018-05-11T10:15:21.997Z,101431.75
2018-05-11T10:17:47.779Z,101427.42
2018-05-11T10:20:13.736Z,101428.24
2018-05-11T10:22:39.521Z,101425.11
2018-05-11T10:25:05.321Z,101428.68
2018-05-11T10:27:31.122Z,101432.17
2018-05-11T10:29:56.933Z,101430.76
2018-05-11T10:32:22.817Z,101433.65
2018-05-11T10:34:49.082Z,101435.78
2018-05-11T10:37:15.419Z,101435.38
2018-05-11T10:39:41.653Z,101430.77
2018-05-11T10:42:07.889Z,101432.05
2018-05-11T10:44:34.056Z,101434.83
2018-05-11T10:47:00.270Z,101430.63
2018-05-11T10:49:26.363Z,101433.04
2018-05-11T10:51:52.168Z,101431.62
2018-05-11T10:54:17.977Z,101429.75
2018-05-11T10:56:43.803Z,101433.80
2018-05-11T10:59:09.621Z,101438.28
2018-05-11T11:01:35.750Z,101430.89
2018-05-11T11:04:01.541Z,101440.70
2018-05-11T11:06:27.333Z,101438.53
2018-05-11T11:08:53.150Z,101430.11
2018-05-11T11:11:18.937Z,101432.98
2018-05-11T11:13:44.748Z,101439.44
2018-05-11T11:16:10.678Z,101428.71
2018-05-11T11:18:36.486Z,101430.50
2018-05-11T11:21:02.271Z,101424.46
2018-05-11T11:23:28.056Z,101429.84
2018-05-11T11:25:53.907Z,101434.34
2018-05-11T11:28:19.676Z,101427.10
2018-05-11T11:30:45.461Z,101429.91
2018-05-11T11:33:11.257Z,101427.66
2018-05-11T11:35:37.047Z,101430.89
2018-05-11T11:38:02.844Z,101416.83
2018-05-11T11:40:28.946Z,101420.87
2018-05-11T11:42:54.730Z,101425.22
2018-05-11T11:45:20.510Z,101421.20
2018-05-11T11:47:46.307Z,101414.69
2018-05-11T11:50:12.091Z,101410.11
2018-05-11T11:52:37.902Z,101413.13
2018-05-11T11:55:03.702Z,101411.52
2018-05-11T11:57:29.493Z,101417.67
2018-05-11T11:59:55.284Z,101412.75
2018-05-11T12:02:21.122Z,101414.70
2018-05-11T12:04:46.908Z,101408.99
2018-05-11T12:07:12.694Z,101406.07
2018-05-11T12:09:38.521Z,101403.93
2018-05-11T12:12:04.310Z,101401.88
2018-05-11T12:14:30.101Z,101412.16
2018-05-11T12:16:55.910Z,101405.17
2018-05-11T12:19:21.704Z,101404.81
2018-05-11T12:21:47.509Z,101403.38
2018-05-11T12:24:13.305Z,101397.62
2018-05-11T12:26:39.094Z,101395.35
2018-05-11T12:29:04.912Z,101401.20
2018-05-11T12:31:30.701Z,101402.52
2018-05-11T12:33:56.493Z,101404.69
2018-05-11T12:36:22.472Z,101400.27
2018-05-11T12:38:48.280Z,101400.20
2018-05-11T12:41:14.105Z,101403.43
2018-05-11T12:43:39.886Z,101403.89
2018-05-11T12:46:05.664Z,101404.55
2018-05-11T12:48:32.543Z,101398.59
2018-05-11T12:50:58.548Z,101400.51
2018-05-11T12:53:24.355Z,101402.50
2018-05-11T12:55:50.342Z,101391.96
2018-05-11T12:58:16.147Z,101401.38
2018-05-11T13:00:41.964Z,101394.91
2018-05-11T13:03:07.894Z,101405.67
2018-05-11T13:05:33.676Z,101398.58
2018-05-11T13:07:59.470Z,101396.16
2018-05-11T13:10:25.273Z,101395.53
2018-05-11T13:12:51.122Z,101396.22
2018-05-11T13:15:17.214Z,101393.61
2018-05-11T13:17:43.000Z,101389.09
2018-05-11T13:20:08.778Z,101386.48
2018-05-11T13:22:34.729Z,101385.52
2018-05-11T13:25:00.522Z,101381.63
2018-05-11T13:27:26.307Z,101380.63
2018-05-11T13:29:52.305Z,101378.50
2018-05-11T13:32:18.119Z,101381.65
2018-05-11T13:34:43.917Z,101374.11
2018-05-11T13:37:09.709Z,101372.19
2018-05-11T13:39:35.506Z,101371.99
2018-05-11T13:42:01.354Z,101372.35
2018-05-11T13:44:27.109Z,101374.02
2018-05-11T13:46:52.900Z,101364.36
2018-05-11T13:49:18.717Z,101363.71
2018-05-11T13:51:44.493Z,101359.15
2018-05-11T13:54:10.285Z,101360.31
2018-05-11T13:56:36.122Z,101362.52
2018-05-11T13:59:01.943Z,101360.14
2018-05-11T14:01:27.721Z,101363.47
2018-05-11T14:03:53.530Z,101351.52
2018-05-11T14:06:19.345Z,101360.19
2018-05-11T14:08:45.135Z,101358.80
2018-05-11T14:11:10.954Z,101352.95
2018-05-11T14:13:36.751Z,101350.84
2018-05-11T14:16:02.567Z,101357.35
2018-05-11T14:18:28.669Z,101362.39
2018-05-11T14:20:54.465Z,101357.86
2018-05-11T14:23:20.264Z,101357.24
2018-05-11T14:25:46.070Z,101356.86
2018-05-11T14:28:11.907Z,101356.92
2018-05-11T14:30:37.990Z,101350.41
2018-05-11T14:33:03.905Z,101349.70
2018-05-11T14:35:29.769Z,101348.52
2018-05-11T14:37:55.563Z,101344.70
2018-05-11T14:40:21.411Z,101347.05
2018-05-11T14:42:47.198Z,101343.95
2018-05-11T14:45:12.984Z,101343.54
2018-05-11T14:47:38.773Z,101342.14
2018-05-11T14:50:04.569Z,101330.51
2018-05-11T14:52:30.366Z,101328.28
2018-05-11T14:54:56.172Z,101325.33
2018-05-11T14:57:22.276Z,101327.33
2018-05-11T14:59:48.070Z,101317.35
2018-05-11T15:02:13.886Z,101316.62
2018-05-11T15:04:40.032Z,101320.75
2018-05-11T15:07:05.853Z,101318.67
2018-05-11T15:09:31.673Z,101318.70
2018-05-11T15:11:57.857Z,101320.41
2018-05-11T15:14:23.645Z,101318.55
2018-05-11T15:16:49.443Z,101316.06
2018-05-11T15:19:15.262Z,101319.91
2018-05-11T15:21:41.053Z,101316.53
2018-05-11T15:24:06.863Z,101313.70
2018-05-11T15:26:32.694Z,101316.56
2018-05-11T15:28:58.497Z,101311.36
2018-05-11T15:31:24.316Z,101312.72
2018-05-11T15:33:50.110Z,101314.55
2018-05-11T15:36:15.902Z,101312.80
2018-05-11T15:38:41.725Z,101299.27
2018-05-11T15:41:07.509Z,101304.83
2018-05-11T15:43:33.284Z,101311.06
2018-05-11T15:45:59.077Z,101303.30
2018-05-11T15:48:25.299Z,101304.24
2018-05-11T15:50:51.096Z,101287.49
2018-05-11T15:53:16.889Z,101302.30
2018-05-11T15:55:42.736Z,101296.38
2018-05-11T15:58:08.530Z,101292.36
2018-05-11T16:00:34.314Z,101288.48
2018-05-11T16:03:00.142Z,101291.23
2018-05-11T16:05:25.957Z,101286.64
2018-05-11T16:07:51.762Z,101281.86
2018-05-11T16:10:17.577Z,101284.57
2018-05-11T16:12:43.426Z,101277.73
2018-05-11T16:15:09.181Z,101279.11
2018-05-11T16:17:41.777Z,101276.02
2018-05-11T16:20:07.585Z,101278.32
2018-05-11T16:22:33.372Z,101277.53
2018-05-11T16:24:59.195Z,101270.45
2018-05-11T16:27:25.085Z,101270.00
2018-05-11T16:29:50.870Z,101274.07
2018-05-11T16:32:16.661Z,101270.95
2018-05-11T16:34:42.490Z,101274.55
2018-05-11T16:37:08.280Z,101270.53
2018-05-11T16:39:34.182Z,101266.91
2018-05-11T16:41:59.924Z,101265.19
2018-05-11T16:44:25.715Z,101264.30
2018-05-11T16:46:51.553Z,101258.78
2018-05-11T16:49:17.369Z,101265.80
2018-05-11T16:51:43.159Z,101261.14
2018-05-11T16:54:08.958Z,101264.34
2018-05-11T16:56:34.770Z,101259.03
2018-05-11T16:59:00.583Z,101257.85
2018-05-11T17:01:26.495Z,101252.37
2018-05-11T17:03:52.286Z,101255.34
2018-05-11T17:06:18.104Z,101262.58
2018-05-11T17:08:44.039Z,101252.06
2018-05-11T17:11:09.834Z,101253.05
2018-05-11T17:13:35.633Z,101256.31
2018-05-11T17:16:01.431Z,101259.70
2018-05-11T17:18:27.230Z,101251.32
2018-05-11T17:20:53.021Z,101253.95
2018-05-11T17:23:18.810Z,101241.53
2018-05-11T17:25:44.613Z,101256.09
2018-05-11T17:28:10.390Z,101251.61
2018-05-11T17:30:36.193Z,101250.36
2018-05-11T17:33:02.032Z,101252.91
2018-05-11T17:35:27.837Z,101255.70
2018-05-11T17:37:53.613Z,101256.70
2018-05-11T17:40:19.701Z,101250.25
2018-05-11T17:42:45.511Z,101249.02
2018-05-11T17:45:11.290Z,101262.08
2018-05-11T17:47:37.094Z,101249.56
2018-05-11T17:50:02.942Z,101256.04
2018-05-11T17:52:28.725Z,101256.09
2018-05-11T17:54:54.537Z,101251.54
2018-05-11T17:57:20.369Z,101252.06
2018-05-11T17:59:46.159Z,101254.70
2018-05-11T18:02:11.979Z,101252.52
2018-05-11T18:04:37.769Z,101253.69
2018-05-11T18:07:03.560Z,101250.88
2018-05-11T18:09:29.363Z,101252.72
2018-05-11T18:11:55.161Z,101252.87
2018-05-11T18:14:20.970Z,101249.61
2018-05-11T18:16:46.794Z,101250.34
2018-05-11T18:19:12.573Z,101249.77
2018-05-11T18:21:38.370Z,101245.76
2018-05-11T18:24:04.269Z,101252.95
2018-05-11T18:26:30.055Z,101250.61
2018-05-11T18:28:55.850Z,101248.34
2018-05-11T18:31:21.663Z,101254.03
2018-05-11T18:33:47.453Z,101255.73
2018-05-11T18:36:13.269Z,101257.50
2018-05-11T18:38:39.089Z,101249.75
2018-05-11T18:41:04.875Z,101254.23
2018-05-11T18:43:30.692Z,101249.42
2018-05-11T18:45:56.482Z,101255.37
2018-05-11T18:48:22.274Z,101255.94
2018-05-11T18:50:48.066Z,101253.05
2018-05-11T18:53:14.205Z,101250.41
2018-05-11T18:55:39.677Z,101251.36
2018-05-11T18:58:05.470Z,101262.80
2018-05-11T19:00:31.287Z,101256.34
2018-05-11T19:02:57.091Z,101263.60
2018-05-11T19:05:22.878Z,101262.93
2018-05-11T19:07:48.671Z,101279.89
2018-05-11T19:10:14.482Z,101283.00
2018-05-11T19:12:40.269Z,101287.13
2018-05-11T19:15:06.102Z,101283.32
2018-05-11T19:17:31.885Z,101273.53
2018-05-11T19:19:57.685Z,101290.19
2018-05-11T19:22:23.485Z,101297.33
2018-05-11T19:24:49.274Z,101296.86
2018-05-11T19:27:15.098Z,101300.16
2018-05-11T19:29:40.888Z,101298.78
2018-05-11T19:32:06.697Z,101301.61
2018-05-11T19:34:32.494Z,101304.46
2018-05-11T19:39:31.073Z,101307.63
2018-05-11T19:41:56.856Z,101308.83
2018-05-11T19:44:22.654Z,101313.44
2018-05-11T19:46:48.486Z,101313.42
2018-05-11T19:49:14.367Z,101318.70
2018-05-11T19:51:40.155Z,101320.59
2018-05-11T19:54:05.960Z,101319.62
2018-05-11T19:56:31.750Z,101318.67
2018-05-11T19:58:57.550Z,101309.89
2018-05-11T20:01:23.356Z,101316.64
2018-05-11T20:03:49.133Z,101314.00
2018-05-11T20:06:14.929Z,101312.61
2018-05-11T20:08:40.718Z,101311.41
2018-05-11T20:11:06.542Z,101309.35
2018-05-11T20:13:32.337Z,101308.64
2018-05-11T20:15:58.145Z,101310.34
2018-05-11T20:18:24.245Z,101316.81
2018-05-11T20:20:50.031Z,101323.19
2018-05-11T20:23:15.823Z,101327.81
2018-05-11T20:25:41.621Z,101323.89
2018-05-11T20:28:07.425Z,101325.25
2018-05-11T20:30:33.229Z,101328.41
2018-05-11T20:32:59.032Z,101331.48
2018-05-11T20:35:24.812Z,101328.08
2018-05-11T20:37:50.606Z,101330.34
2018-05-11T20:40:16.432Z,101333.58
2018-05-11T20:42:42.249Z,101334.01
2018-05-11T20:45:08.065Z,101330.48
2018-05-11T20:47:33.867Z,101325.82
2018-05-11T20:49:59.687Z,101327.89
2018-05-11T20:52:25.491Z,101327.05
2018-05-11T20:54:51.282Z,101323.89
2018-05-11T20:57:17.215Z,101320.03
2018-05-11T20:59:43.013Z,101319.30
2018-05-11T21:02:08.812Z,101319.86
2018-05-11T21:04:41.639Z,101320.66
2018-05-11T21:07:07.432Z,101318.20
2018-05-11T21:09:33.245Z,101320.66
2018-05-11T21:11:59.022Z,101324.55
2018-05-11T21:14:24.883Z,101328.61
2018-05-11T21:16:50.622Z,101327.95
2018-05-11T21:19:23.368Z,101328.41
2018-05-11T21:21:49.253Z,101339.39
2018-05-11T21:24:15.057Z,101333.84
2018-05-11T21:26:40.842Z,101333.05
2018-05-11T21:29:06.650Z,101341.23
2018-05-11T21:31:32.434Z,101340.13
2018-05-11T21:33:58.232Z,101336.91
2018-05-11T21:36:24.009Z,101335.41
2018-05-11T21:38:49.800Z,101340.63
2018-05-11T21:41:15.683Z,101335.84
2018-05-11T21:43:41.414Z,101333.41
2018-05-11T21:46:07.226Z,101337.03
2018-05-11T21:48:33.013Z,101337.79
2018-05-11T21:50:58.797Z,101333.41
2018-05-11T21:53:24.615Z,101336.44
2018-05-11T21:55:50.424Z,101336.03
2018-05-11T21:58:16.233Z,101337.77
2018-05-11T22:00:42.066Z,101337.63
2018-05-11T22:03:07.863Z,101344.14
2018-05-11T22:05:33.666Z,101334.66
2018-05-11T22:07:59.441Z,101340.89
2018-05-11T22:10:25.234Z,101336.09
2018-05-11T22:12:51.025Z,101340.12
2018-05-11T22:15:16.833Z,101330.97
2018-05-11T22:17:42.621Z,101330.58
2018-05-11T22:20:08.417Z,101330.20
2018-05-11T22:22:34.202Z,101326.58
2018-05-11T22:25:00.003Z,101327.22
2018-05-11T22:27:25.785Z,101329.47
2018-05-11T22:29:51.923Z,101324.78
2018-05-11T22:32:17.727Z,101326.48
2018-05-11T22:34:43.541Z,101324.66
2018-05-11T22:37:09.317Z,101328.22
2018-05-11T22:39:35.117Z,101324.86
2018-05-11T22:42:00.936Z,101321.55
2018-05-11T22:44:26.721Z,101321.03
2018-05-11T22:46:52.506Z,101318.80
2018-05-11T22:49:18.311Z,101319.59
2018-05-11T22:51:44.098Z,101314.10
2018-05-11T22:54:09.929Z,101313.41
2018-05-11T22:56:35.714Z,101316.07
2018-05-11T22:59:01.511Z,101307.84
2018-05-11T23:01:27.311Z,101308.74
2018-05-11T23:03:53.089Z,101311.08
2018-05-11T23:06:18.877Z,101303.95
2018-05-11T23:08:44.667Z,101297.09
2018-05-11T23:11:10.485Z,101305.50
2018-05-11T23:13:36.280Z,101298.01
2018-05-11T23:16:02.141Z,101295.39
2018-05-11T23:18:28.130Z,101298.73
2018-05-11T23:20:53.913Z,101296.77
2018-05-11T23:23:19.888Z,101266.09
2018-05-11T23:25:45.872Z,101292.02
2018-05-11T23:28:11.661Z,101292.13
2018-05-11T23:30:37.534Z,101286.14
2018-05-11T23:33:03.346Z,101283.18
2018-05-11T23:35:29.133Z,101288.55
2018-05-11T23:37:55.270Z,101287.80
2018-05-11T23:40:21.080Z,101285.97
2018-05-11T23:42:46.865Z,101281.13
2018-05-11T23:45:12.684Z,101281.11
2018-05-11T23:47:38.477Z,101275.30
2018-05-11T23:50:04.274Z,101276.05
2018-05-11T23:52:30.070Z,101278.03
2018-05-11T23:54:55.862Z,101270.56
2018-05-11T23:57:21.646Z,101272.42
2018-05-11T23:59:47.463Z,101265.92
